createdAt,value
2024-01-06T00:00:08.084Z,1025.53
2024-01-06T00:00:35.482Z,1025.33
2024-01-06T00:00:55.191Z,1025.33
2024-01-06T00:01:27.676Z,1025.33
2024-01-06T00:01:58.817Z,1025.33
2024-01-06T00:02:31.556Z,1025.33
2024-01-06T00:03:02.868Z,1025.43
2024-01-06T00:03:36.269Z,1025.53
2024-01-06T00:04:07.004Z,1025.53
2024-01-06T00:04:35.396Z,1025.53
2024-01-06T00:04:54.930Z,1025.53
2024-01-06T00:05:27.086Z,1025.53
2024-01-06T00:05:43.402Z,1025.43
2024-01-06T00:06:15.197Z,1025.43
2024-01-06T00:06:35.383Z,1025.43
2024-01-06T00:07:03.747Z,1025.43
2024-01-06T00:07:35.387Z,1025.53
2024-01-06T00:08:07.611Z,1025.53
2024-01-06T00:08:34.603Z,1025.63
2024-01-06T00:08:54.988Z,1025.63
2024-01-06T00:09:26.850Z,1025.63
2024-01-06T00:09:58.857Z,1025.63
2024-01-06T00:10:31.225Z,1025.63
2024-01-06T00:11:02.810Z,1025.63
2024-01-06T00:11:34.617Z,1025.63
2024-01-06T00:11:50.882Z,1025.63
2024-01-06T00:12:23.686Z,1025.63
2024-01-06T00:12:40.791Z,1025.74
2024-01-06T00:13:10.837Z,1025.74
2024-01-06T00:13:34.648Z,1025.63
2024-01-06T00:13:58.807Z,1025.63
2024-01-06T00:14:31.734Z,1025.63
2024-01-06T00:15:03.174Z,1025.53
2024-01-06T00:15:35.709Z,1025.74
2024-01-06T00:16:06.941Z,1025.74
2024-01-06T00:16:34.481Z,1025.74
2024-01-06T00:16:54.905Z,1025.74
2024-01-06T00:17:26.849Z,1025.74
2024-01-06T00:17:59.713Z,1025.74
2024-01-06T00:18:31.066Z,1025.74
2024-01-06T00:19:03.793Z,1025.74
2024-01-06T00:19:34.574Z,1025.63
2024-01-06T00:19:50.877Z,1025.63
2024-01-06T00:20:23.019Z,1025.63
2024-01-06T00:20:39.964Z,1025.84
2024-01-06T00:21:11.581Z,1025.84
2024-01-06T00:21:34.516Z,1025.74
2024-01-06T00:21:58.830Z,1025.74
2024-01-06T00:22:30.937Z,1025.74
2024-01-06T00:23:03.138Z,1025.63
2024-01-06T00:23:34.366Z,1025.53
2024-01-06T00:23:50.780Z,1025.53
2024-01-06T00:24:23.664Z,1025.53
2024-01-06T00:24:40.654Z,1025.74
2024-01-06T00:25:11.010Z,1025.74
2024-01-06T00:25:34.470Z,1025.74
2024-01-06T00:25:59.048Z,1025.74
2024-01-06T00:26:31.510Z,1025.74
2024-01-06T00:27:02.809Z,1025.43
2024-01-06T00:27:35.632Z,1025.63
2024-01-06T00:28:06.921Z,1025.63
2024-01-06T00:28:34.398Z,1025.63
2024-01-06T00:28:55.142Z,1025.63
2024-01-06T00:29:26.866Z,1025.63
2024-01-06T00:29:59.398Z,1025.63
2024-01-06T00:30:31.152Z,1025.63
2024-01-06T00:31:03.746Z,1025.84
2024-01-06T00:31:34.547Z,1025.74
2024-01-06T00:31:50.863Z,1025.74
2024-01-06T00:32:22.851Z,1025.74
2024-01-06T00:32:40.135Z,1025.63
2024-01-06T00:33:11.757Z,1025.63
2024-01-06T00:33:34.596Z,1025.74
2024-01-06T00:33:58.912Z,1025.74
2024-01-06T00:34:31.040Z,1025.74
2024-01-06T00:35:03.097Z,1025.74
2024-01-06T00:35:34.783Z,1025.84
2024-01-06T00:36:06.857Z,1025.84
2024-01-06T00:36:35.939Z,1025.74
2024-01-06T00:36:55.183Z,1025.74
2024-01-06T00:37:27.665Z,1025.74
2024-01-06T00:37:58.839Z,1025.53
2024-01-06T00:38:31.619Z,1025.53
2024-01-06T00:39:02.796Z,1025.84
2024-01-06T00:39:37.096Z,1025.84
2024-01-06T00:40:07.160Z,1025.84
2024-01-06T00:40:34.813Z,1025.63
2024-01-06T00:40:55.404Z,1025.63
2024-01-06T00:41:26.945Z,1025.63
2024-01-06T00:41:59.857Z,1025.84
2024-01-06T00:42:30.865Z,1025.84
2024-01-06T00:43:03.489Z,1025.63
2024-01-06T00:43:34.757Z,1025.53
2024-01-06T00:44:07.966Z,1025.53
2024-01-06T00:44:34.620Z,1025.63
2024-01-06T00:44:55.236Z,1025.63
2024-01-06T00:45:27.168Z,1025.63
2024-01-06T00:45:58.857Z,1025.94
2024-01-06T00:46:30.862Z,1025.94
2024-01-06T00:47:02.767Z,1025.84
2024-01-06T00:47:34.279Z,1025.74
2024-01-06T00:47:50.924Z,1025.74
2024-01-06T00:48:23.759Z,1025.74
2024-01-06T00:48:41.031Z,1025.84
2024-01-06T00:49:10.921Z,1025.84
2024-01-06T00:49:34.508Z,1025.84
2024-01-06T00:49:58.834Z,1025.84
2024-01-06T00:50:31.808Z,1025.84
2024-01-06T00:51:02.812Z,1025.74
2024-01-06T00:51:37.510Z,1025.84
2024-01-06T00:52:06.851Z,1025.84
2024-01-06T00:52:34.681Z,1025.63
2024-01-06T00:52:54.838Z,1025.63
2024-01-06T00:53:26.886Z,1025.63
2024-01-06T00:53:59.497Z,1025.63
2024-01-06T00:54:30.925Z,1025.63
2024-01-06T00:55:04.126Z,1025.74
2024-01-06T00:55:34.458Z,1025.94
2024-01-06T00:55:50.988Z,1025.94
2024-01-06T00:56:22.816Z,1025.94
2024-01-06T00:56:39.928Z,1025.53
2024-01-06T00:57:12.275Z,1025.53
2024-01-06T00:57:34.673Z,1025.84
2024-01-06T00:57:58.892Z,1025.84
2024-01-06T00:58:30.856Z,1025.84
2024-01-06T00:59:03.059Z,1025.74
2024-01-06T00:59:34.366Z,1025.84
2024-01-06T00:59:50.795Z,1025.84
2024-01-06T01:00:24.869Z,1025.84
2024-01-06T01:00:40.773Z,1025.63
2024-01-06T01:01:11.261Z,1025.63
2024-01-06T01:01:34.512Z,1025.74
2024-01-06T01:01:58.839Z,1025.74
2024-01-06T01:02:33.506Z,1025.74
2024-01-06T01:03:02.828Z,1025.63
2024-01-06T01:03:35.483Z,1025.94
2024-01-06T01:04:06.930Z,1025.94
2024-01-06T01:04:35.060Z,1025.84
2024-01-06T01:04:55.021Z,1025.84
2024-01-06T01:05:27.011Z,1025.84
2024-01-06T01:05:59.528Z,1025.84
2024-01-06T01:06:30.862Z,1025.84
2024-01-06T01:07:03.714Z,1025.94
2024-01-06T01:07:34.483Z,1025.94
2024-01-06T01:07:51.197Z,1025.94
2024-01-06T01:08:22.834Z,1025.94
2024-01-06T01:08:39.965Z,1025.84
2024-01-06T01:09:11.608Z,1025.84
2024-01-06T01:09:34.734Z,1025.74
2024-01-06T01:09:58.817Z,1025.74
2024-01-06T01:10:31.008Z,1025.74
2024-01-06T01:11:02.805Z,1025.84
2024-01-06T01:11:34.386Z,1025.74
2024-01-06T01:11:50.824Z,1025.74
2024-01-06T01:12:23.629Z,1025.74
2024-01-06T01:12:40.699Z,1025.94
2024-01-06T01:13:10.872Z,1025.94
2024-01-06T01:13:34.530Z,1025.94
2024-01-06T01:13:59.033Z,1025.94
2024-01-06T01:14:31.659Z,1025.94
2024-01-06T01:15:03.254Z,1025.84
2024-01-06T01:15:35.385Z,1025.84
2024-01-06T01:16:22.897Z,1025.84
2024-01-06T01:16:40.925Z,1025.84
2024-01-06T01:17:10.817Z,1025.84
2024-01-06T01:17:34.481Z,1026.04
2024-01-06T01:17:58.832Z,1026.04
2024-01-06T01:18:30.976Z,1026.04
2024-01-06T01:19:03.641Z,1025.84
2024-01-06T01:19:34.618Z,1025.63
2024-01-06T01:19:51.140Z,1025.63
2024-01-06T01:20:22.991Z,1025.63
2024-01-06T01:20:39.939Z,1025.94
2024-01-06T01:21:11.619Z,1025.94
2024-01-06T01:21:34.466Z,1025.94
2024-01-06T01:21:58.877Z,1025.94
2024-01-06T01:22:30.891Z,1025.94
2024-01-06T01:23:02.866Z,1025.94
2024-01-06T01:23:34.839Z,1026.04
2024-01-06T01:23:50.936Z,1026.04
2024-01-06T01:24:23.756Z,1026.04
2024-01-06T01:24:40.769Z,1026.14
2024-01-06T01:25:11.896Z,1026.14
2024-01-06T01:25:34.358Z,1025.84
2024-01-06T01:25:58.949Z,1025.84
2024-01-06T01:26:31.641Z,1025.84
2024-01-06T01:27:02.896Z,1025.94
2024-01-06T01:27:35.321Z,1026.14
2024-01-06T01:28:06.876Z,1026.14
2024-01-06T01:28:34.423Z,1026.04
2024-01-06T01:28:55.032Z,1026.04
2024-01-06T01:29:26.922Z,1026.04
2024-01-06T01:30:32.200Z,1025.84
2024-01-06T01:31:03.080Z,1026.14
2024-01-06T01:31:35.375Z,1026.04
2024-01-06T01:32:07.160Z,1026.04
2024-01-06T01:32:34.726Z,1025.94
2024-01-06T01:32:55.076Z,1025.94
2024-01-06T01:33:27.055Z,1025.94
2024-01-06T01:33:59.620Z,1025.84
2024-01-06T01:34:31.122Z,1025.84
2024-01-06T01:35:04.401Z,1025.94
2024-01-06T01:35:34.457Z,1026.04
2024-01-06T01:35:51.053Z,1026.04
2024-01-06T01:36:22.978Z,1026.04
2024-01-06T01:36:40.317Z,1026.14
2024-01-06T01:37:10.873Z,1026.14
2024-01-06T01:37:34.405Z,1026.14
2024-01-06T01:37:59.481Z,1026.14
2024-01-06T01:38:30.903Z,1026.14
2024-01-06T01:39:03.590Z,1026.21
2024-01-06T01:39:34.525Z,1026.04
2024-01-06T01:39:50.799Z,1026.04
2024-01-06T01:40:23.023Z,1026.04
2024-01-06T01:40:40.165Z,1026.04
2024-01-06T01:41:11.493Z,1026.04
2024-01-06T01:41:34.393Z,1026.21
2024-01-06T01:41:58.870Z,1026.21
2024-01-06T01:42:30.841Z,1026.21
2024-01-06T01:43:02.781Z,1026.21
2024-01-06T01:43:34.472Z,1026.04
2024-01-06T01:44:08.039Z,1026.04
2024-01-06T01:44:35.929Z,1026.21
2024-01-06T01:44:54.950Z,1026.21
2024-01-06T01:45:27.301Z,1026.21
2024-01-06T01:45:58.981Z,1026.21
2024-01-06T01:46:30.863Z,1026.21
2024-01-06T01:47:02.819Z,1026.14
2024-01-06T01:47:34.469Z,1026.21
2024-01-06T01:47:51.827Z,1026.21
2024-01-06T01:48:22.985Z,1026.21
2024-01-06T01:48:40.236Z,1026.21
2024-01-06T01:49:11.255Z,1026.21
2024-01-06T01:49:36.360Z,1026.21
2024-01-06T01:49:59.711Z,1026.21
2024-01-06T01:50:31.697Z,1026.21
2024-01-06T01:51:03.761Z,1026.31
2024-01-06T01:51:34.580Z,1026.31
2024-01-06T01:51:50.963Z,1026.31
2024-01-06T01:52:23.045Z,1026.31
2024-01-06T01:52:39.966Z,1026.31
2024-01-06T01:53:11.504Z,1026.31
2024-01-06T01:53:35.071Z,1026.31
2024-01-06T01:53:58.847Z,1026.31
2024-01-06T01:54:30.892Z,1026.31
2024-01-06T01:55:03.043Z,1026.21
2024-01-06T01:55:34.462Z,1026.21
2024-01-06T01:55:51.030Z,1026.21
2024-01-06T01:56:24.302Z,1026.21
2024-01-06T01:56:41.412Z,1025.94
2024-01-06T01:57:10.945Z,1025.94
2024-01-06T01:57:34.462Z,1026.51
2024-01-06T01:57:58.959Z,1026.51
2024-01-06T01:58:32.524Z,1026.51
2024-01-06T01:59:02.723Z,1026.31
2024-01-06T01:59:35.326Z,1026.31
2024-01-06T02:00:07.445Z,1026.31
2024-01-06T02:00:34.488Z,1026.41
2024-01-06T02:00:55.321Z,1026.41
2024-01-06T02:01:26.914Z,1026.41
2024-01-06T02:01:59.527Z,1026.41
2024-01-06T02:02:34.697Z,1026.31
2024-01-06T02:03:03.640Z,1026.31
2024-01-06T02:03:34.550Z,1026.51
2024-01-06T02:03:50.977Z,1026.51
2024-01-06T02:04:22.864Z,1026.51
2024-01-06T02:04:40.001Z,1026.41
2024-01-06T02:05:12.196Z,1026.41
2024-01-06T02:05:34.471Z,1026.41
2024-01-06T02:05:59.024Z,1026.41
2024-01-06T02:06:30.864Z,1026.41
2024-01-06T02:07:02.938Z,1026.41
2024-01-06T02:07:34.990Z,1026.31
2024-01-06T02:08:06.856Z,1026.31
2024-01-06T02:08:35.434Z,1026.41
2024-01-06T02:08:55.490Z,1026.41
2024-01-06T02:09:27.610Z,1026.41
2024-01-06T02:09:58.807Z,1026.31
2024-01-06T02:10:31.857Z,1026.31
2024-01-06T02:11:02.806Z,1026.31
2024-01-06T02:11:35.204Z,1026.31
2024-01-06T02:12:06.929Z,1026.31
2024-01-06T02:12:34.464Z,1026.31
2024-01-06T02:12:55.696Z,1026.31
2024-01-06T02:13:26.957Z,1026.31
2024-01-06T02:13:59.569Z,1026.41
2024-01-06T02:14:30.837Z,1026.41
2024-01-06T02:15:04.602Z,1026.41
2024-01-06T02:15:34.804Z,1026.41
2024-01-06T02:15:51.100Z,1026.41
2024-01-06T02:16:22.853Z,1026.41
2024-01-06T02:16:39.915Z,1026.41
2024-01-06T02:17:11.798Z,1026.41
2024-01-06T02:17:34.551Z,1026.31
2024-01-06T02:17:58.934Z,1026.31
2024-01-06T02:18:30.965Z,1026.31
2024-01-06T02:19:03.021Z,1026.51
2024-01-06T02:19:34.479Z,1026.41
2024-01-06T02:19:51.068Z,1026.41
2024-01-06T02:20:23.824Z,1026.41
2024-01-06T02:20:40.656Z,1026.72
2024-01-06T02:21:11.133Z,1026.72
2024-01-06T02:21:34.367Z,1026.41
2024-01-06T02:21:58.894Z,1026.41
2024-01-06T02:22:31.712Z,1026.41
2024-01-06T02:23:02.830Z,1026.41
2024-01-06T02:23:35.248Z,1026.21
2024-01-06T02:24:07.160Z,1026.21
2024-01-06T02:24:35.365Z,1026.31
2024-01-06T02:24:54.857Z,1026.31
2024-01-06T02:25:26.989Z,1026.31
2024-01-06T02:25:59.643Z,1026.41
2024-01-06T02:26:30.851Z,1026.41
2024-01-06T02:27:03.525Z,1026.51
2024-01-06T02:27:34.473Z,1026.41
2024-01-06T02:27:50.887Z,1026.41
2024-01-06T02:28:22.846Z,1026.41
2024-01-06T02:28:39.895Z,1026.21
2024-01-06T02:29:11.620Z,1026.21
2024-01-06T02:29:34.412Z,1026.31
2024-01-06T02:29:58.897Z,1026.31
2024-01-06T02:30:31.152Z,1026.31
2024-01-06T02:31:02.927Z,1026.51
2024-01-06T02:31:34.454Z,1026.72
2024-01-06T02:31:50.933Z,1026.72
2024-01-06T02:32:23.620Z,1026.72
2024-01-06T02:32:40.783Z,1026.41
2024-01-06T02:33:10.964Z,1026.41
2024-01-06T02:33:34.827Z,1026.62
2024-01-06T02:33:58.939Z,1026.62
2024-01-06T02:34:31.597Z,1026.62
2024-01-06T02:35:03.198Z,1026.51
2024-01-06T02:35:37.145Z,1026.51
2024-01-06T02:36:08.065Z,1026.51
2024-01-06T02:36:34.860Z,1026.41
2024-01-06T02:36:54.971Z,1026.41
2024-01-06T02:37:26.837Z,1026.41
2024-01-06T02:37:59.506Z,1026.51
2024-01-06T02:38:30.808Z,1026.51
2024-01-06T02:39:03.700Z,1026.41
2024-01-06T02:39:34.565Z,1026.82
2024-01-06T02:39:50.915Z,1026.82
2024-01-06T02:40:23.780Z,1026.82
2024-01-06T02:40:39.955Z,1026.51
2024-01-06T02:41:11.537Z,1026.51
2024-01-06T02:41:35.141Z,1026.51
2024-01-06T02:41:58.831Z,1026.51
2024-01-06T02:42:30.882Z,1026.51
2024-01-06T02:43:03.024Z,1026.62
2024-01-06T02:43:34.398Z,1026.72
2024-01-06T02:43:50.880Z,1026.72
2024-01-06T02:44:23.898Z,1026.72
2024-01-06T02:44:40.744Z,1026.82
2024-01-06T02:45:11.375Z,1026.82
2024-01-06T02:45:34.968Z,1026.82
2024-01-06T02:45:59.255Z,1026.82
2024-01-06T02:46:31.495Z,1026.82
2024-01-06T02:47:02.797Z,1026.62
2024-01-06T02:47:35.367Z,1026.72
2024-01-06T02:48:07.215Z,1026.72
2024-01-06T02:48:34.791Z,1026.92
2024-01-06T02:48:55.133Z,1026.92
2024-01-06T02:49:26.864Z,1026.92
2024-01-06T02:49:59.745Z,1026.82
2024-01-06T02:50:31.072Z,1026.82
2024-01-06T02:51:04.132Z,1026.82
2024-01-06T02:51:34.463Z,1026.92
2024-01-06T02:51:50.993Z,1026.92
2024-01-06T02:52:22.871Z,1026.92
2024-01-06T02:52:39.906Z,1026.92
2024-01-06T02:53:11.529Z,1026.92
2024-01-06T02:53:34.484Z,1026.82
2024-01-06T02:53:58.865Z,1026.82
2024-01-06T02:54:31.017Z,1026.82
2024-01-06T02:55:03.265Z,1026.82
2024-01-06T02:55:34.380Z,1026.72
2024-01-06T02:55:51.091Z,1026.72
2024-01-06T02:56:23.713Z,1026.72
2024-01-06T02:56:40.709Z,1026.82
2024-01-06T02:57:10.912Z,1026.82
2024-01-06T02:57:34.484Z,1026.82
2024-01-06T02:57:58.893Z,1026.82
2024-01-06T02:58:31.624Z,1026.82
2024-01-06T02:59:02.852Z,1026.92
2024-01-06T02:59:35.486Z,1026.72
2024-01-06T03:00:07.591Z,1026.72
2024-01-06T03:00:34.865Z,1026.72
2024-01-06T03:00:55.249Z,1026.72
2024-01-06T03:01:26.945Z,1026.72
2024-01-06T03:01:59.445Z,1026.82
2024-01-06T03:02:30.829Z,1026.82
2024-01-06T03:03:03.713Z,1026.82
2024-01-06T03:03:34.786Z,1027.02
2024-01-06T03:03:51.008Z,1027.02
2024-01-06T03:04:22.896Z,1027.02
2024-01-06T03:04:39.939Z,1026.72
2024-01-06T03:05:11.886Z,1026.72
2024-01-06T03:05:34.618Z,1026.82
2024-01-06T03:05:59.429Z,1026.82
2024-01-06T03:06:30.873Z,1026.82
2024-01-06T03:07:02.837Z,1026.82
2024-01-06T03:07:34.718Z,1026.82
2024-01-06T03:07:51.140Z,1026.82
2024-01-06T03:08:23.697Z,1026.82
2024-01-06T03:08:40.846Z,1026.82
2024-01-06T03:09:11.080Z,1026.82
2024-01-06T03:09:36.059Z,1026.72
2024-01-06T03:09:59.072Z,1026.72
2024-01-06T03:10:32.984Z,1026.72
2024-01-06T03:11:02.900Z,1026.82
2024-01-06T03:11:36.514Z,1026.82
2024-01-06T03:12:06.955Z,1026.82
2024-01-06T03:12:34.862Z,1026.82
2024-01-06T03:12:55.088Z,1026.82
2024-01-06T03:13:26.925Z,1026.82
2024-01-06T03:13:59.586Z,1026.92
2024-01-06T03:14:30.935Z,1026.92
2024-01-06T03:15:04.688Z,1026.92
2024-01-06T03:15:34.631Z,1027.02
2024-01-06T03:15:51.250Z,1027.02
2024-01-06T03:16:22.925Z,1027.02
2024-01-06T03:16:39.984Z,1026.92
2024-01-06T03:17:11.826Z,1026.92
2024-01-06T03:17:34.623Z,1026.92
2024-01-06T03:17:59.028Z,1026.92
2024-01-06T03:18:31.025Z,1026.92
2024-01-06T03:19:03.210Z,1027.12
2024-01-06T03:19:34.633Z,1027.02
2024-01-06T03:19:51.306Z,1027.02
2024-01-06T03:20:23.889Z,1027.02
2024-01-06T03:20:40.821Z,1026.92
2024-01-06T03:21:10.885Z,1026.92
2024-01-06T03:21:34.479Z,1027.12
2024-01-06T03:21:58.959Z,1027.12
2024-01-06T03:22:31.544Z,1027.12
2024-01-06T03:23:02.896Z,1027.02
2024-01-06T03:23:35.924Z,1027.02
2024-01-06T03:24:06.986Z,1027.02
2024-01-06T03:24:34.635Z,1027.02
2024-01-06T03:24:55.045Z,1027.02
2024-01-06T03:25:27.085Z,1027.02
2024-01-06T03:25:59.762Z,1027.02
2024-01-06T03:26:30.876Z,1027.02
2024-01-06T03:27:03.866Z,1027.12
2024-01-06T03:27:34.832Z,1027.23
2024-01-06T03:28:07.647Z,1027.23
2024-01-06T03:28:34.576Z,1027.12
2024-01-06T03:28:55.034Z,1027.12
2024-01-06T03:29:27.726Z,1027.12
2024-01-06T03:29:58.948Z,1027.33
2024-01-06T03:30:31.202Z,1027.33
2024-01-06T03:31:03.009Z,1027.12
2024-01-06T03:31:34.690Z,1027.12
2024-01-06T03:31:51.152Z,1027.12
2024-01-06T03:32:23.686Z,1027.12
2024-01-06T03:32:40.801Z,1027.33
2024-01-06T03:33:11.045Z,1027.33
2024-01-06T03:33:34.503Z,1027.12
2024-01-06T03:33:59.104Z,1027.12
2024-01-06T03:34:31.870Z,1027.12
2024-01-06T03:35:03.219Z,1027.33
2024-01-06T03:35:35.270Z,1027.12
2024-01-06T03:36:07.573Z,1027.12
2024-01-06T03:36:34.834Z,1027.33
2024-01-06T03:36:54.991Z,1027.33
2024-01-06T03:37:26.968Z,1027.33
2024-01-06T03:38:15.978Z,1027.43
2024-01-06T03:38:34.582Z,1027.33
2024-01-06T03:39:02.989Z,1027.33
2024-01-06T03:39:34.500Z,1027.12
2024-01-06T03:39:50.971Z,1027.12
2024-01-06T03:40:23.835Z,1027.12
2024-01-06T03:40:40.653Z,1027.33
2024-01-06T03:41:10.894Z,1027.33
2024-01-06T03:41:35.005Z,1027.33
2024-01-06T03:41:58.869Z,1027.33
2024-01-06T03:42:31.559Z,1027.33
2024-01-06T03:43:02.838Z,1027.12
2024-01-06T03:43:36.195Z,1027.33
2024-01-06T03:44:07.226Z,1027.33
2024-01-06T03:44:34.440Z,1027.43
2024-01-06T03:44:55.021Z,1027.43
2024-01-06T03:45:27.283Z,1027.43
2024-01-06T03:45:59.668Z,1027.43
2024-01-06T03:46:31.370Z,1027.43
2024-01-06T03:47:03.548Z,1027.33
2024-01-06T03:47:34.470Z,1027.23
2024-01-06T03:47:51.165Z,1027.23
2024-01-06T03:48:22.992Z,1027.23
2024-01-06T03:48:40.253Z,1027.33
2024-01-06T03:49:11.704Z,1027.33
2024-01-06T03:49:35.187Z,1027.12
2024-01-06T03:49:58.963Z,1027.12
2024-01-06T03:50:31.092Z,1027.12
2024-01-06T03:51:03.072Z,1027.43
2024-01-06T03:51:34.600Z,1027.33
2024-01-06T03:51:51.026Z,1027.33
2024-01-06T03:52:23.805Z,1027.33
2024-01-06T03:52:40.700Z,1027.23
2024-01-06T03:53:10.862Z,1027.23
2024-01-06T03:53:34.855Z,1027.53
2024-01-06T03:53:58.885Z,1027.53
2024-01-06T03:54:31.542Z,1027.53
2024-01-06T03:55:03.193Z,1027.53
2024-01-06T03:55:35.460Z,1027.53
2024-01-06T03:56:06.974Z,1027.53
2024-01-06T03:56:34.960Z,1027.43
2024-01-06T03:56:55.098Z,1027.43
2024-01-06T03:57:26.881Z,1027.43
2024-01-06T03:57:59.525Z,1027.33
2024-01-06T03:58:31.867Z,1027.33
2024-01-06T03:59:03.631Z,1027.33
2024-01-06T03:59:34.482Z,1027.53
2024-01-06T03:59:50.895Z,1027.53
2024-01-06T04:00:23.560Z,1027.53
2024-01-06T04:00:40.081Z,1027.43
2024-01-06T04:01:11.699Z,1027.43
2024-01-06T04:01:34.569Z,1027.43
2024-01-06T04:01:58.859Z,1027.43
2024-01-06T04:02:30.960Z,1027.43
2024-01-06T04:03:02.839Z,1027.53
2024-01-06T04:03:34.536Z,1027.53
2024-01-06T04:03:50.895Z,1027.53
2024-01-06T04:04:23.695Z,1027.53
2024-01-06T04:04:40.903Z,1027.63
2024-01-06T04:05:11.334Z,1027.63
2024-01-06T04:05:34.374Z,1027.43
2024-01-06T04:05:59.210Z,1027.43
2024-01-06T04:06:31.595Z,1027.43
2024-01-06T04:07:02.812Z,1027.43
2024-01-06T04:07:35.069Z,1027.43
2024-01-06T04:08:06.885Z,1027.43
2024-01-06T04:08:34.444Z,1027.73
2024-01-06T04:08:54.987Z,1027.73
2024-01-06T04:09:26.910Z,1027.73
2024-01-06T04:09:59.710Z,1027.53
2024-01-06T04:10:31.106Z,1027.53
2024-01-06T04:11:03.643Z,1027.43
2024-01-06T04:11:34.501Z,1027.53
2024-01-06T04:11:50.958Z,1027.53
2024-01-06T04:12:22.908Z,1027.53
2024-01-06T04:12:40.010Z,1027.43
2024-01-06T04:13:11.569Z,1027.43
2024-01-06T04:13:34.503Z,1027.53
2024-01-06T04:13:58.921Z,1027.53
2024-01-06T04:14:30.890Z,1027.53
2024-01-06T04:15:03.945Z,1027.53
2024-01-06T04:15:34.650Z,1027.53
2024-01-06T04:15:51.236Z,1027.53
2024-01-06T04:16:23.622Z,1027.53
2024-01-06T04:16:40.696Z,1027.53
2024-01-06T04:17:10.931Z,1027.53
2024-01-06T04:17:34.573Z,1027.63
2024-01-06T04:17:58.977Z,1027.63
2024-01-06T04:18:31.795Z,1027.63
2024-01-06T04:19:03.154Z,1027.73
2024-01-06T04:19:35.283Z,1027.43
2024-01-06T04:20:07.096Z,1027.43
2024-01-06T04:20:34.487Z,1027.53
2024-01-06T04:20:55.171Z,1027.53
2024-01-06T04:21:26.880Z,1027.53
2024-01-06T04:21:59.521Z,1027.63
2024-01-06T04:22:30.817Z,1027.63
2024-01-06T04:23:03.519Z,1027.53
2024-01-06T04:23:34.717Z,1027.73
2024-01-06T04:23:51.022Z,1027.73
2024-01-06T04:24:22.887Z,1027.73
2024-01-06T04:24:39.979Z,1027.53
2024-01-06T04:25:11.804Z,1027.53
2024-01-06T04:25:34.440Z,1027.53
2024-01-06T04:25:59.144Z,1027.53
2024-01-06T04:26:30.916Z,1027.53
2024-01-06T04:27:02.875Z,1027.63
2024-01-06T04:27:34.526Z,1027.53
2024-01-06T04:27:50.842Z,1027.53
2024-01-06T04:28:23.625Z,1027.53
2024-01-06T04:28:40.713Z,1027.43
2024-01-06T04:29:10.870Z,1027.43
2024-01-06T04:29:34.577Z,1027.63
2024-01-06T04:29:58.942Z,1027.63
2024-01-06T04:30:32.091Z,1027.63
2024-01-06T04:31:03.007Z,1027.63
2024-01-06T04:31:36.383Z,1027.63
2024-01-06T04:32:06.916Z,1027.63
2024-01-06T04:32:34.626Z,1027.53
2024-01-06T04:32:54.928Z,1027.53
2024-01-06T04:33:27.281Z,1027.53
2024-01-06T04:34:00.174Z,1027.63
2024-01-06T04:34:30.919Z,1027.63
2024-01-06T04:35:04.102Z,1027.63
2024-01-06T04:35:35.085Z,1027.53
2024-01-06T04:35:51.021Z,1027.53
2024-01-06T04:36:22.977Z,1027.53
2024-01-06T04:36:40.054Z,1027.73
2024-01-06T04:37:11.834Z,1027.73
2024-01-06T04:37:34.473Z,1027.73
2024-01-06T04:37:59.427Z,1027.73
2024-01-06T04:38:31.540Z,1027.73
2024-01-06T04:39:02.865Z,1027.73
2024-01-06T04:39:37.721Z,1027.63
2024-01-06T04:40:07.731Z,1027.63
2024-01-06T04:40:34.472Z,1027.63
2024-01-06T04:40:55.121Z,1027.63
2024-01-06T04:41:26.878Z,1027.63
2024-01-06T04:42:00.593Z,1027.53
2024-01-06T04:42:30.904Z,1027.53
2024-01-06T04:43:03.670Z,1027.73
2024-01-06T04:43:34.642Z,1027.63
2024-01-06T04:44:07.822Z,1027.63
2024-01-06T04:44:34.535Z,1027.84
2024-01-06T04:44:54.951Z,1027.84
2024-01-06T04:45:27.171Z,1027.84
2024-01-06T04:45:59.177Z,1027.84
2024-01-06T04:46:30.888Z,1027.84
2024-01-06T04:47:02.901Z,1027.73
2024-01-06T04:47:34.889Z,1027.63
2024-01-06T04:48:07.091Z,1027.63
2024-01-06T04:48:34.518Z,1027.63
2024-01-06T04:48:55.026Z,1027.63
2024-01-06T04:49:27.698Z,1027.63
2024-01-06T04:49:58.994Z,1027.63
2024-01-06T04:50:31.821Z,1027.63
2024-01-06T04:51:02.883Z,1027.73
2024-01-06T04:51:35.206Z,1027.63
2024-01-06T04:52:06.948Z,1027.63
2024-01-06T04:52:34.522Z,1027.73
2024-01-06T04:52:54.920Z,1027.73
2024-01-06T04:53:26.843Z,1027.73
2024-01-06T04:53:59.495Z,1027.73
2024-01-06T04:54:30.920Z,1027.73
2024-01-06T04:55:05.036Z,1027.73
2024-01-06T04:55:34.931Z,1027.84
2024-01-06T04:55:51.095Z,1027.84
2024-01-06T04:56:22.880Z,1027.84
2024-01-06T04:56:40.032Z,1027.94
2024-01-06T04:57:11.638Z,1027.94
2024-01-06T04:57:34.500Z,1027.73
2024-01-06T04:57:58.964Z,1027.73
2024-01-06T04:58:30.878Z,1027.73
2024-01-06T04:59:02.905Z,1027.84
2024-01-06T04:59:34.467Z,1027.73
2024-01-06T04:59:50.829Z,1027.73
2024-01-06T05:00:24.187Z,1027.73
2024-01-06T05:00:40.900Z,1027.73
2024-01-06T05:01:11.034Z,1027.73
2024-01-06T05:01:34.444Z,1027.73
2024-01-06T05:01:58.966Z,1027.73
2024-01-06T05:02:31.525Z,1027.73
2024-01-06T05:03:02.895Z,1027.94
2024-01-06T05:03:36.654Z,1027.94
2024-01-06T05:04:07.167Z,1027.94
2024-01-06T05:04:34.423Z,1027.84
2024-01-06T05:04:55.151Z,1027.84
2024-01-06T05:05:27.123Z,1027.84
2024-01-06T05:05:59.638Z,1027.84
2024-01-06T05:06:30.923Z,1027.84
2024-01-06T05:07:03.662Z,1027.84
2024-01-06T05:07:34.484Z,1027.73
2024-01-06T05:07:51.147Z,1027.73
2024-01-06T05:08:22.999Z,1027.73
2024-01-06T05:08:39.971Z,1027.73
2024-01-06T05:09:11.503Z,1027.73
2024-01-06T05:09:34.453Z,1027.73
2024-01-06T05:09:58.957Z,1027.73
2024-01-06T05:10:31.048Z,1027.73
2024-01-06T05:11:02.889Z,1027.73
2024-01-06T05:11:34.698Z,1027.84
2024-01-06T05:11:50.867Z,1027.84
2024-01-06T05:12:23.685Z,1027.84
2024-01-06T05:12:40.743Z,1027.84
2024-01-06T05:13:10.895Z,1027.84
2024-01-06T05:13:34.383Z,1028.14
2024-01-06T05:13:59.237Z,1028.14
2024-01-06T05:14:31.760Z,1028.14
2024-01-06T05:15:03.553Z,1028.04
2024-01-06T05:15:35.517Z,1027.84
2024-01-06T05:16:07.091Z,1027.84
2024-01-06T05:16:34.769Z,1028.04
2024-01-06T05:16:54.987Z,1028.04
2024-01-06T05:17:26.863Z,1028.04
2024-01-06T05:17:59.636Z,1027.94
2024-01-06T05:18:30.991Z,1027.94
2024-01-06T05:19:04.065Z,1028.14
2024-01-06T05:19:34.635Z,1028.04
2024-01-06T05:19:50.962Z,1028.04
2024-01-06T05:20:23.121Z,1028.04
2024-01-06T05:20:39.983Z,1027.94
2024-01-06T05:21:11.661Z,1027.94
2024-01-06T05:21:34.427Z,1028.04
2024-01-06T05:21:59.035Z,1028.04
2024-01-06T05:22:30.923Z,1028.04
2024-01-06T05:23:03.053Z,1028.04
2024-01-06T05:23:35.325Z,1027.94
2024-01-06T05:24:06.887Z,1027.94
2024-01-06T05:24:35.270Z,1028.24
2024-01-06T05:24:55.370Z,1028.24
2024-01-06T05:25:27.007Z,1028.24
2024-01-06T05:25:58.901Z,1028.04
2024-01-06T05:26:30.881Z,1028.04
2024-01-06T05:27:02.923Z,1028.14
2024-01-06T05:27:34.540Z,1028.04
2024-01-06T05:27:51.642Z,1028.04
2024-01-06T05:28:22.912Z,1028.04
2024-01-06T05:28:40.090Z,1028.04
2024-01-06T05:29:10.906Z,1028.04
2024-01-06T05:29:34.512Z,1028.14
2024-01-06T05:29:59.565Z,1028.14
2024-01-06T05:30:31.334Z,1028.14
2024-01-06T05:31:04.224Z,1028.04
2024-01-06T05:31:34.555Z,1028.04
2024-01-06T05:31:51.006Z,1028.04
2024-01-06T05:32:23.061Z,1028.04
2024-01-06T05:32:39.968Z,1028.24
2024-01-06T05:33:14.406Z,1028.24
2024-01-06T05:33:34.796Z,1028.24
2024-01-06T05:33:59.102Z,1028.24
2024-01-06T05:34:30.932Z,1028.24
2024-01-06T05:35:03.595Z,1028.14
2024-01-06T05:35:34.455Z,1028.14
2024-01-06T05:35:51.458Z,1028.14
2024-01-06T05:36:23.728Z,1028.14
2024-01-06T05:36:40.793Z,1028.14
2024-01-06T05:37:10.959Z,1028.14
2024-01-06T05:37:34.907Z,1028.14
2024-01-06T05:37:59.036Z,1028.14
2024-01-06T05:38:31.706Z,1028.14